createdAt,value
2023-03-27T00:01:55.015Z,74.63
2023-03-27T00:05:05.305Z,74.26
2023-03-27T00:08:14.976Z,74.22
2023-03-27T00:11:25.006Z,74.28
2023-03-27T00:14:33.549Z,74.57
2023-03-27T00:17:42.127Z,74.20
2023-03-27T00:20:52.224Z,74.49
2023-03-27T00:24:00.646Z,74.11
2023-03-27T00:27:09.580Z,75.18
2023-03-27T00:30:18.785Z,75.07
2023-03-27T00:33:27.725Z,74.85
2023-03-27T00:36:37.556Z,75.57
2023-03-27T00:39:50.073Z,76.30
2023-03-27T00:42:59.311Z,75.63
2023-03-27T00:46:32.270Z,76.28
2023-03-27T00:49:40.963Z,76.43
2023-03-27T00:52:58.388Z,76.74
2023-03-27T00:56:10.486Z,76.74
2023-03-27T00:59:24.838Z,75.48
2023-03-27T01:02:33.245Z,75.90
2023-03-27T01:05:41.734Z,75.70
2023-03-27T01:08:52.963Z,75.20
2023-03-27T01:12:20.978Z,75.15
2023-03-27T01:15:40.132Z,75.25
2023-03-27T01:19:09.121Z,74.51
2023-03-27T01:23:09.342Z,74.07
2023-03-27T01:27:03.759Z,74.35
2023-03-27T01:30:21.334Z,73.64
2023-03-27T01:34:01.662Z,74.24
2023-03-27T01:37:47.980Z,74.35
2023-03-27T01:41:06.630Z,74.54
2023-03-27T01:44:21.530Z,73.83
2023-03-27T01:47:43.526Z,74.77
2023-03-27T01:50:58.915Z,74.74
2023-03-27T01:54:17.863Z,75.28
2023-03-27T01:57:34.302Z,75.05
2023-03-27T02:00:53.307Z,75.45
2023-03-27T02:04:06.013Z,76.38
2023-03-27T02:07:23.535Z,76.63
2023-03-27T02:10:40.835Z,77.87
2023-03-27T02:13:58.782Z,78.52
2023-03-27T02:17:15.176Z,79.43
2023-03-27T02:20:24.294Z,79.67
2023-03-27T02:23:32.920Z,79.96
2023-03-27T02:26:41.175Z,80.60
2023-03-27T02:30:06.066Z,80.83
2023-03-27T02:33:28.385Z,80.74
2023-03-27T02:36:53.412Z,80.58
2023-03-27T02:40:15.000Z,81.39
2023-03-27T02:43:32.244Z,81.38
2023-03-27T02:46:52.932Z,81.53
2023-03-27T02:50:10.910Z,81.78
2023-03-27T02:53:25.452Z,81.33
2023-03-27T02:56:43.507Z,81.10
2023-03-27T03:00:07.460Z,80.64
2023-03-27T03:03:32.184Z,81.39
2023-03-27T03:06:51.295Z,82.02
2023-03-27T03:09:59.569Z,81.44
2023-03-27T03:13:08.639Z,82.31
2023-03-27T03:16:18.564Z,81.24
2023-03-27T03:19:28.867Z,82.33
2023-03-27T03:22:38.012Z,82.00
2023-03-27T03:25:47.953Z,82.41
2023-03-27T03:29:00.148Z,82.33
2023-03-27T03:32:09.885Z,82.91
2023-03-27T03:35:19.838Z,82.88
2023-03-27T03:38:38.214Z,82.15
2023-03-27T03:41:53.468Z,82.89
2023-03-27T03:45:01.698Z,82.43
2023-03-27T03:48:10.357Z,82.70
2023-03-27T03:51:19.958Z,82.50
2023-03-27T03:54:28.396Z,82.83
2023-03-27T03:57:36.760Z,83.04
2023-03-27T04:00:50.046Z,83.26
2023-03-27T04:04:11.428Z,83.52
2023-03-27T04:07:42.402Z,83.99
2023-03-27T04:11:01.670Z,83.78
2023-03-27T04:14:34.925Z,84.02
2023-03-27T04:17:48.983Z,85.03
2023-03-27T04:20:58.574Z,84.36
2023-03-27T04:24:09.196Z,84.11
2023-03-27T04:27:30.394Z,83.97
2023-03-27T04:30:50.766Z,84.43
2023-03-27T04:34:03.101Z,84.39
2023-03-27T04:37:45.551Z,84.98
2023-03-27T04:41:14.693Z,85.34
2023-03-27T04:44:25.116Z,84.95
2023-03-27T04:47:38.320Z,85.39
2023-03-27T04:50:49.825Z,84.72
2023-03-27T04:54:10.613Z,85.90
2023-03-27T04:57:27.885Z,85.84
2023-03-27T05:00:40.548Z,85.42
2023-03-27T05:04:18.326Z,85.68
2023-03-27T05:07:48.743Z,86.04
2023-03-27T05:11:02.965Z,86.33
2023-03-27T05:14:24.115Z,86.38
2023-03-27T05:17:33.895Z,86.11
2023-03-27T05:20:43.882Z,86.36
2023-03-27T05:23:52.188Z,87.27
2023-03-27T05:27:04.760Z,87.25
2023-03-27T05:30:16.814Z,87.77
2023-03-27T05:33:25.731Z,87.85
2023-03-27T05:36:35.894Z,86.79
2023-03-27T05:39:46.754Z,87.72
2023-03-27T05:42:57.147Z,86.37
2023-03-27T05:46:11.096Z,87.63
2023-03-27T05:49:20.242Z,87.74
2023-03-27T05:52:33.638Z,88.19
2023-03-27T05:55:43.507Z,88.26
2023-03-27T05:58:52.403Z,88.76
2023-03-27T06:02:02.076Z,88.76
2023-03-27T06:05:27.749Z,87.90
2023-03-27T06:08:36.712Z,87.65
2023-03-27T06:11:48.311Z,88.64
2023-03-27T06:14:56.485Z,87.77
2023-03-27T06:18:27.155Z,87.79
2023-03-27T06:21:35.741Z,87.75
2023-03-27T06:24:44.262Z,87.68
2023-03-27T06:27:56.080Z,87.98
2023-03-27T06:31:04.737Z,87.90
2023-03-27T06:34:19.804Z,86.92
2023-03-27T06:37:37.053Z,86.64
2023-03-27T06:40:47.162Z,87.63
2023-03-27T06:43:56.404Z,88.19
2023-03-27T06:47:14.996Z,87.67
2023-03-27T06:50:58.683Z,88.01
2023-03-27T06:54:08.913Z,88.32
2023-03-27T06:57:20.865Z,88.29
2023-03-27T07:00:41.505Z,88.82
2023-03-27T07:04:13.207Z,88.14
2023-03-27T07:07:37.658Z,88.35
2023-03-27T07:10:56.442Z,89.00
2023-03-27T07:14:17.774Z,88.74
2023-03-27T07:17:29.850Z,88.88
2023-03-27T07:20:51.123Z,89.18
2023-03-27T07:24:04.546Z,88.26
2023-03-27T07:27:14.965Z,88.04
2023-03-27T07:30:23.909Z,88.24
2023-03-27T07:33:32.247Z,88.58
2023-03-27T07:36:41.709Z,88.57
2023-03-27T07:39:51.388Z,88.76
2023-03-27T07:43:00.260Z,88.27
2023-03-27T07:46:08.713Z,88.74
2023-03-27T07:49:18.665Z,87.76
2023-03-27T07:52:27.389Z,88.30
2023-03-27T07:55:46.181Z,87.96
2023-03-27T07:58:55.254Z,88.16
2023-03-27T08:02:04.123Z,88.97
2023-03-27T08:05:14.508Z,88.33
2023-03-27T08:08:27.307Z,88.35
2023-03-27T08:11:41.304Z,87.72
2023-03-27T08:14:49.545Z,88.03
2023-03-27T08:18:03.535Z,87.69
2023-03-27T08:21:12.798Z,88.32
2023-03-27T08:24:21.496Z,88.22
2023-03-27T08:27:52.302Z,88.76
2023-03-27T08:31:04.126Z,87.91
2023-03-27T08:34:17.631Z,87.96
2023-03-27T08:37:28.994Z,88.51
2023-03-27T08:40:59.983Z,86.89
2023-03-27T08:44:21.442Z,86.74
2023-03-27T08:47:42.168Z,86.62
2023-03-27T08:51:08.309Z,86.76
2023-03-27T08:54:20.208Z,87.14
2023-03-27T08:57:31.640Z,87.04
2023-03-27T09:00:56.301Z,86.03
2023-03-27T09:04:21.496Z,86.15
2023-03-27T09:07:41.772Z,85.94
2023-03-27T09:11:12.817Z,84.83
2023-03-27T09:14:37.702Z,84.55
2023-03-27T09:17:52.814Z,84.93
2023-03-27T09:21:10.618Z,86.24
2023-03-27T09:24:31.406Z,87.34
2023-03-27T09:28:15.298Z,87.29
2023-03-27T09:31:34.925Z,87.25
2023-03-27T09:34:49.476Z,86.00
2023-03-27T09:38:04.049Z,86.24
2023-03-27T09:41:21.603Z,85.77
2023-03-27T09:44:37.450Z,85.80
2023-03-27T09:47:58.019Z,85.61
2023-03-27T09:51:42.616Z,84.89
2023-03-27T09:55:27.019Z,85.18
2023-03-27T09:58:43.614Z,84.37
2023-03-27T10:01:56.699Z,84.42
2023-03-27T10:05:16.493Z,82.81
2023-03-27T10:08:38.824Z,83.76
2023-03-27T10:12:09.774Z,83.25
2023-03-27T10:15:35.713Z,82.34
2023-03-27T10:18:48.449Z,83.09
2023-03-27T10:22:14.570Z,82.27
2023-03-27T10:25:34.226Z,82.29
2023-03-27T10:29:02.706Z,81.14
2023-03-27T10:32:18.866Z,81.73
2023-03-27T10:35:50.371Z,80.88
2023-03-27T10:39:11.619Z,80.52
2023-03-27T10:42:34.635Z,79.88
2023-03-27T10:45:51.735Z,79.13
2023-03-27T10:49:18.275Z,77.48
2023-03-27T10:52:38.921Z,78.95
2023-03-27T10:56:08.919Z,76.63
2023-03-27T10:59:38.338Z,77.05
2023-03-27T11:03:03.716Z,74.32
2023-03-27T11:06:18.270Z,73.88
2023-03-27T11:09:37.020Z,73.54
2023-03-27T11:12:57.661Z,74.50
2023-03-27T11:16:20.095Z,75.67
2023-03-27T11:20:07.235Z,72.86
2023-03-27T11:23:41.278Z,72.60
2023-03-27T11:27:15.545Z,71.49
2023-03-27T11:30:37.302Z,73.06
2023-03-27T11:33:53.431Z,71.77
2023-03-27T11:37:08.154Z,69.92
2023-03-27T11:40:30.122Z,70.10
2023-03-27T11:43:42.898Z,69.16
2023-03-27T11:47:49.103Z,70.76
2023-03-27T11:51:11.415Z,68.03
2023-03-27T11:54:51.251Z,68.52
2023-03-27T11:58:27.214Z,67.35
2023-03-27T12:01:48.776Z,65.06
2023-03-27T12:05:01.778Z,64.94
2023-03-27T12:08:51.594Z,68.09
2023-03-27T12:12:21.756Z,70.84
2023-03-27T12:16:07.050Z,69.15
2023-03-27T12:20:09.278Z,67.01
2023-03-27T12:23:57.464Z,66.48
2023-03-27T12:27:48.428Z,68.26
2023-03-27T12:31:46.597Z,64.52
2023-03-27T12:35:00.704Z,65.85
2023-03-27T12:38:28.608Z,71.64
2023-03-27T12:41:45.590Z,71.66
2023-03-27T12:45:17.886Z,69.49
2023-03-27T12:48:29.728Z,67.75
2023-03-27T12:51:47.545Z,66.03
2023-03-27T12:55:32.326Z,63.07
2023-03-27T12:58:42.342Z,59.96
2023-03-27T13:03:07.483Z,58.41
2023-03-27T13:06:40.493Z,56.43
2023-03-27T13:10:05.050Z,53.79
2023-03-27T13:13:52.168Z,55.67
2023-03-27T13:17:29.387Z,57.35
2023-03-27T13:20:49.547Z,54.44
2023-03-27T13:24:24.143Z,56.58
2023-03-27T13:27:53.423Z,56.74
2023-03-27T13:31:07.385Z,57.89
2023-03-27T13:34:40.699Z,54.16
2023-03-27T13:38:03.729Z,55.78
2023-03-27T13:42:10.380Z,57.59
2023-03-27T13:45:34.034Z,57.67
2023-03-27T13:49:46.233Z,59.49
2023-03-27T13:53:25.986Z,61.00
2023-03-27T13:57:03.487Z,57.95
2023-03-27T14:01:09.445Z,56.33
2023-03-27T14:04:58.877Z,55.81
2023-03-27T14:08:31.071Z,55.71
2023-03-27T14:12:15.727Z,55.40
2023-03-27T14:16:25.886Z,57.49
2023-03-27T14:20:16.752Z,56.65
2023-03-27T14:23:32.734Z,54.23
2023-03-27T14:27:03.279Z,55.23
2023-03-27T14:30:22.322Z,55.45
2023-03-27T14:33:51.288Z,50.84
2023-03-27T14:37:02.088Z,50.09
2023-03-27T14:40:26.213Z,51.00
2023-03-27T14:43:38.241Z,54.01
2023-03-27T14:46:49.054Z,53.23
2023-03-27T14:50:01.821Z,54.14
2023-03-27T14:53:44.594Z,56.07
2023-03-27T14:57:11.012Z,60.56
2023-03-27T15:00:33.497Z,75.30
2023-03-27T15:03:41.899Z,81.92
2023-03-27T15:06:57.524Z,83.25
2023-03-27T15:10:31.565Z,82.90
2023-03-27T15:13:49.629Z,82.40
2023-03-27T15:17:17.163Z,78.36
2023-03-27T15:20:32.105Z,78.29
2023-03-27T15:23:46.728Z,78.87
2023-03-27T15:26:58.271Z,78.66
2023-03-27T15:30:30.200Z,78.61
2023-03-27T15:33:56.389Z,75.70
2023-03-27T15:37:11.457Z,77.10
2023-03-27T15:40:42.174Z,75.86
2023-03-27T15:43:53.785Z,74.78
2023-03-27T15:47:02.986Z,78.27
2023-03-27T15:50:21.469Z,78.24
2023-03-27T15:53:39.651Z,79.15
2023-03-27T15:56:48.336Z,78.64
2023-03-27T16:00:04.175Z,78.04
2023-03-27T16:03:24.490Z,76.53
2023-03-27T16:06:39.633Z,76.04
2023-03-27T16:09:54.723Z,74.38
2023-03-27T16:13:06.559Z,74.87
2023-03-27T16:16:28.791Z,75.31
2023-03-27T16:19:44.648Z,75.33
2023-03-27T16:22:53.623Z,75.52
2023-03-27T16:26:04.655Z,75.12
2023-03-27T16:29:15.971Z,73.75
2023-03-27T16:32:27.278Z,74.68
2023-03-27T16:35:39.106Z,73.21
2023-03-27T16:38:48.798Z,72.19
2023-03-27T16:41:57.265Z,71.80
2023-03-27T16:45:07.325Z,72.93
2023-03-27T16:48:17.833Z,72.93
2023-03-27T16:51:30.036Z,72.99
2023-03-27T16:54:39.373Z,73.19
2023-03-27T16:57:48.071Z,72.12
2023-03-27T17:00:56.996Z,73.33
2023-03-27T17:04:07.692Z,73.18
2023-03-27T17:07:16.332Z,72.69
2023-03-27T17:10:24.896Z,78.22
2023-03-27T17:13:33.734Z,82.00
2023-03-27T17:16:42.776Z,83.23
2023-03-27T17:19:54.132Z,82.70
2023-03-27T17:23:02.503Z,83.44
2023-03-27T17:26:16.052Z,83.58
2023-03-27T17:29:25.510Z,83.62
2023-03-27T17:32:36.007Z,83.83
2023-03-27T17:35:46.085Z,83.25
2023-03-27T17:38:54.973Z,83.37
2023-03-27T17:42:03.685Z,83.61
2023-03-27T17:45:12.811Z,84.02
2023-03-27T17:48:21.225Z,84.53
2023-03-27T17:51:31.227Z,85.21
2023-03-27T17:54:40.283Z,85.36
2023-03-27T17:57:55.705Z,85.48
2023-03-27T18:01:16.390Z,85.34
2023-03-27T18:04:25.286Z,85.62
2023-03-27T18:07:35.095Z,84.21
2023-03-27T18:10:48.429Z,83.68
2023-03-27T18:13:56.823Z,82.01
2023-03-27T18:17:05.045Z,82.56
2023-03-27T18:20:13.661Z,84.41
2023-03-27T18:23:23.417Z,82.02
2023-03-27T18:26:31.652Z,81.29
2023-03-27T18:29:39.969Z,82.16
2023-03-27T18:32:48.859Z,82.34
2023-03-27T18:35:58.561Z,81.02
2023-03-27T18:39:08.573Z,82.15
2023-03-27T18:42:17.145Z,81.95
2023-03-27T18:45:25.866Z,81.97
2023-03-27T18:48:35.743Z,81.68
2023-03-27T18:51:44.102Z,82.13
2023-03-27T18:54:54.387Z,81.62
2023-03-27T18:58:02.922Z,82.11
2023-03-27T19:01:11.588Z,81.04
2023-03-27T19:04:20.008Z,81.71
2023-03-27T19:07:28.141Z,81.62
2023-03-27T19:10:39.094Z,81.75
2023-03-27T19:14:02.916Z,82.01
2023-03-27T19:17:15.057Z,81.56
2023-03-27T19:20:41.483Z,81.89
2023-03-27T19:24:01.736Z,81.63
2023-03-27T19:27:23.822Z,81.51
2023-03-27T19:30:34.534Z,80.36
2023-03-27T19:33:43.013Z,80.94
2023-03-27T19:36:52.326Z,80.13
2023-03-27T19:40:01.495Z,81.58
2023-03-27T19:43:11.393Z,81.90
2023-03-27T19:46:20.780Z,82.75
2023-03-27T19:49:33.126Z,82.51
2023-03-27T19:53:08.978Z,83.21
2023-03-27T19:56:17.831Z,82.78
2023-03-27T19:59:30.818Z,83.12
2023-03-27T20:02:39.707Z,81.50
2023-03-27T20:05:49.952Z,83.13
2023-03-27T20:09:00.649Z,83.14
2023-03-27T20:12:11.224Z,82.67
2023-03-27T20:15:21.518Z,83.29
2023-03-27T20:18:32.716Z,83.35
2023-03-27T20:21:43.579Z,82.61
2023-03-27T20:24:54.837Z,82.34
2023-03-27T20:28:07.227Z,82.57
2023-03-27T20:31:19.897Z,82.76
2023-03-27T20:34:28.505Z,82.93
2023-03-27T20:37:39.577Z,84.28
2023-03-27T20:40:57.822Z,83.20
2023-03-27T20:44:15.464Z,84.23
2023-03-27T20:47:26.258Z,83.98
2023-03-27T20:50:36.450Z,83.28
2023-03-27T20:53:54.412Z,83.12
2023-03-27T20:57:04.575Z,83.66
2023-03-27T21:00:17.039Z,84.66
2023-03-27T21:03:31.830Z,84.21
2023-03-27T21:06:41.656Z,84.42
2023-03-27T21:09:50.366Z,84.61
2023-03-27T21:12:58.999Z,84.96
2023-03-27T21:16:08.465Z,83.73
2023-03-27T21:19:18.059Z,84.81
2023-03-27T21:22:27.335Z,84.01
2023-03-27T21:25:36.349Z,84.16
2023-03-27T21:28:47.648Z,84.84
2023-03-27T21:31:56.171Z,84.51
2023-03-27T21:35:06.779Z,83.21
2023-03-27T21:38:16.454Z,84.04
2023-03-27T21:41:26.019Z,84.04
2023-03-27T21:44:34.436Z,83.94
2023-03-27T21:47:47.618Z,83.89
2023-03-27T21:51:01.344Z,83.80
2023-03-27T21:54:09.713Z,82.84
2023-03-27T21:57:18.366Z,83.12
2023-03-27T22:00:27.147Z,82.13
2023-03-27T22:03:35.586Z,83.05
2023-03-27T22:06:46.624Z,82.93
2023-03-27T22:09:54.867Z,82.83
2023-03-27T22:13:03.486Z,81.94
2023-03-27T22:16:14.043Z,82.68
2023-03-27T22:19:22.525Z,82.78
2023-03-27T22:22:34.271Z,82.08
2023-03-27T22:25:42.391Z,82.99
2023-03-27T22:28:52.649Z,82.13
2023-03-27T22:32:01.233Z,83.54
2023-03-27T22:35:11.254Z,83.14
2023-03-27T22:38:21.085Z,83.12
2023-03-27T22:41:29.338Z,82.28
2023-03-27T22:44:37.564Z,83.24
2023-03-27T22:47:45.930Z,82.82
2023-03-27T22:50:58.560Z,83.70
2023-03-27T22:54:08.693Z,83.33
2023-03-27T22:57:16.956Z,82.05
2023-03-27T23:00:25.352Z,83.25
2023-03-27T23:03:33.931Z,83.35
2023-03-27T23:06:42.495Z,83.41
2023-03-27T23:09:52.330Z,83.83
2023-03-27T23:13:01.371Z,84.09
2023-03-27T23:16:10.958Z,82.60
2023-03-27T23:19:19.692Z,82.51
2023-03-27T23:22:28.034Z,82.41
2023-03-27T23:25:38.267Z,82.19
2023-03-27T23:28:47.781Z,80.97
2023-03-27T23:31:55.949Z,81.38
2023-03-27T23:35:05.034Z,81.06
2023-03-27T23:38:13.800Z,80.13
2023-03-27T23:41:23.858Z,80.75
2023-03-27T23:44:32.168Z,80.70
2023-03-27T23:47:40.696Z,81.37
2023-03-27T23:50:49.542Z,81.57
2023-03-27T23:53:58.553Z,81.26
2023-03-27T23:57:08.451Z,82.79
